Anaconda, MT

2:37 PM MDT on October 23, 2014 (GMT -0600)
RAWS YANKEE FLAT MT US | Change Station
CLOSE
Current Station
Personal Weather Station
Location: Anaconda, MT
Elevation: 6000 ft
Nearby Weather Stations

Elev 6000 ft 46.16 °N, 113.14 °W | Updated 57 minutes ago

Mostly Cloudy
Mostly Cloudy
54 °F
Feels Like 54 °F
N
11
Wind Variable Wind from WNW
Gusts 21.0 mph

Today
High -- | Low -- °F
--% Chance of Precip.
Yesterday
High -- | Low -- °F
Precip. -- in
8:00 AM 6:31 PM
Waning Crescent, 0% visible
Pressure 29.89 in
Visibility 10.0 miles
Clouds Clear
Dew Point 30 °F
Humidity 40%
Rainfall 0.00 in
Snow Depth 1 in , 2 in , 2 in
UV 4 out of 12
Pollen 2.30 out of 12
Air Quality Not available.
Flu Activity No Activity
METAR KBTM 231953Z AUTO 21008KT 10SM CLR 14/01 A2997 RMK AO2 SLP121 T01440006

More Conditions Fewer Conditions

Pressure 29.89 in
Visibility 10.0 miles
Clouds Clear
Dew Point 30 °F
Humidity 40%
Rainfall 0.00 in
Snow Depth 1 in , 2 in , 2 in
UV 4 out of 12
Pollen 2.30 out of 12
Air Quality Not available.
Flu Activity No Activity
METAR KBTM 231953Z AUTO 21008KT 10SM CLR 14/01 A2997 RMK AO2 SLP121 T01440006

More Conditions Fewer Conditions

10-Day Weather Forecast

Almanac

Astronomy

Oct. 23, 2014 Rise Set
Actual Time 8:00 AM MDT 6:31 PM MDT
Civil Twilight 7:29 AM MDT 7:02 PM MDT
Nautical Twilight 6:54 AM MDT 7:37 PM MDT
Astronomical Twilight 6:20 AM MDT 8:12 PM MDT
Moon 7:43 AM MDT 6:35 PM MDT
Length of Visible Light 11h 32m
Length of Day
10h 31m
Tomorrow will be 3m 3s shorter.
Waning Crescent, 0% of the Moon is Illuminated
Today
Waning Crescent
Oct 23
New
Oct 30
First Quarter
Nov 6
Full
Nov 14
Last Quarter

Today's Extremes

State Highs State Lows

Community

WunderPhotos

Upload Photos

1,764,361 photos uploaded!

WunderBlogs® & News

By Dr. Jeff Masters
Director of Meteorology, Weather Underground
By Kari Strenfel
Meteorologist, Weather Underground
By Christopher C. Burt
Weather Historian, Weather Underground
October 23, 2014
October 23, 2014
October 23, 2014

Nearby

Snow Depth

Station Depth Elevation
Barker Lakes 1 in 8250 ft
Warm Springs 2 in 7800 ft
Peterson Meadows 2 in 7200 ft
Black Pine 1 in 7210 ft
Combination 0 in 5600 ft

Earthquake Activity

City Distance Mag. Time & Date
No recent earthquake activity has been reported nearby.
Minimum magnitude displayed is 2.5.

Coastal Water Temperatures

Place Temperature
No Stations Reporting

Nearby Weather Stations